Terminal Aerodrome Forecast
Issued by NWS Pittsburgh, PA

Current Version | Previous Version | Text Only | Print | Product List | Glossary Off
Versions: 1 2 3 4 5 6 7 8 9 10 11 12 13 14 15 16 17 18 19 20 21 22 23 24 25 26 27 28 29 30 31

000
FTUS41 KPBZ 140520
TAFPIT
TAF
KPIT 140520Z 1406/1512 21008KT 2SM -SN OVC015
     FM140900 25008KT 3SM -SN OVC015
     FM141200 29008KT P6SM OVC015
     FM141500 33010KT P6SM BKN025
     FM150300 28005KT P6SM BKN015=

USA.gov is the U.S. government's official web portal to all federal, state and local government web resources and services.